Time;durP1;ratioP1;P1;durP2;ratioP2;P2;SDS_P1;SDS_P2;PMS_P1;PMS_P2;Temp;Humidity;BMP_temperature;BMP_pressure;BME280_temperature;BME280_humidity;BME280_pressure;Samples;Min_cycle;Max_cycle;Signal;HPM_P1;HPM_P2
2022/04/11 00:01:24;;;;;;;6.10;5.40;;;3.40;99.90;;;;;;5030047;28;20230;-56
2022/04/11 00:03:50;;;;;;;5.37;4.87;;;3.40;99.90;;;;;;5023936;28;20222;-58
2022/04/11 00:06:16;;;;;;;6.07;5.43;;;3.40;99.90;;;;;;5017020;28;20518;-57
2022/04/11 00:08:41;;;;;;;6.53;5.93;;;3.40;99.90;;;;;;5030134;28;20190;-58
2022/04/11 00:11:07;;;;;;;8.20;5.50;;;3.40;99.90;;;;;;5023228;28;20665;-56
2022/04/11 00:13:33;;;;;;;6.50;5.80;;;3.30;99.90;;;;;;5010140;28;20180;-58
2022/04/11 00:15:59;;;;;;;7.00;5.28;;;3.30;99.90;;;;;;5028428;28;20174;-59
2022/04/11 00:18:25;;;;;;;7.00;6.00;;;3.30;99.90;;;;;;5025069;28;20332;-59
2022/04/11 00:20:51;;;;;;;6.10;5.40;;;3.30;99.90;;;;;;5023073;28;20237;-58
2022/04/11 00:23:16;;;;;;;6.57;5.47;;;3.30;99.90;;;;;;5020495;28;20226;-57
2022/04/11 00:25:42;;;;;;;9.10;5.73;;;3.30;99.90;;;;;;5029458;28;20289;-58
2022/04/11 00:28:08;;;;;;;5.87;5.33;;;3.20;99.90;;;;;;5029548;28;20578;-59
2022/04/11 00:30:34;;;;;;;7.90;5.22;;;3.20;99.90;;;;;;5015344;28;20464;-59
2022/04/11 00:33:00;;;;;;;5.53;4.87;;;3.20;99.90;;;;;;5029594;28;20179;-58
2022/04/11 00:35:25;;;;;;;6.50;5.17;;;3.20;99.90;;;;;;5010379;28;20179;-53
2022/04/11 00:37:51;;;;;;;7.00;5.23;;;3.10;99.90;;;;;;5009233;28;20197;-58
2022/04/11 00:40:17;;;;;;;6.10;5.23;;;3.10;99.90;;;;;;5022280;28;20634;-57
2022/04/11 00:42:42;;;;;;;6.87;4.83;;;3.00;99.90;;;;;;5015447;28;20190;-58
2022/04/11 00:45:08;;;;;;;7.33;4.70;;;3.00;99.90;;;;;;5016560;28;20854;-58
2022/04/11 00:47:34;;;;;;;6.97;5.70;;;3.00;99.90;;;;;;5006273;28;20195;-58
2022/04/11 00:50:05;;;;;;;6.83;5.20;;;3.00;99.90;;;;;;5020016;28;20462;-59
2022/04/11 00:52:35;;;;;;;6.63;5.70;;;3.00;99.90;;;;;;5028707;28;20417;-58
2022/04/11 00:55:01;;;;;;;8.02;6.15;;;3.00;99.90;;;;;;5027698;28;20229;-59
2022/04/11 00:57:28;;;;;;;8.15;5.75;;;3.00;99.90;;;;;;5009215;28;20188;-59
2022/04/11 00:59:54;;;;;;;7.63;6.20;;;3.00;99.90;;;;;;5008545;28;20322;-58
2022/04/11 01:02:19;;;;;;;7.00;5.60;;;3.00;99.90;;;;;;5009464;28;20183;-59
2022/04/11 01:04:45;;;;;;;8.83;6.40;;;3.00;99.90;;;;;;5006294;28;22268;-58
2022/04/11 01:07:10;;;;;;;7.37;5.60;;;3.00;99.90;;;;;;5009630;28;20271;-59
2022/04/11 01:09:36;;;;;;;7.40;5.27;;;3.00;99.90;;;;;;5008784;28;20184;-59
2022/04/11 01:12:03;;;;;;;7.70;5.53;;;3.00;99.90;;;;;;5009449;28;20180;-59
2022/04/11 01:14:28;;;;;;;8.60;5.50;;;2.90;99.90;;;;;;5009529;28;20168;-58
2022/04/11 01:16:57;;;;;;;9.33;6.17;;;2.90;99.90;;;;;;5008905;28;20710;-58
2022/04/11 01:19:22;;;;;;;7.68;5.65;;;2.90;99.90;;;;;;5009289;28;20434;-57
2022/04/11 01:21:48;;;;;;;8.13;6.13;;;2.90;99.90;;;;;;5009707;28;20160;-57
2022/04/11 01:24:18;;;;;;;8.17;5.83;;;2.90;99.90;;;;;;5008796;28;20175;-56
2022/04/11 01:26:45;;;;;;;6.95;5.97;;;2.90;99.90;;;;;;4989607;28;20860;-58
2022/04/11 01:29:12;;;;;;;6.63;5.70;;;2.80;99.90;;;;;;4993084;28;20555;-59
2022/04/11 01:31:38;;;;;;;8.07;6.05;;;2.80;99.90;;;;;;5024406;28;20215;-57
2022/04/11 01:34:04;;;;;;;7.13;5.37;;;2.80;99.90;;;;;;5008954;28;20168;-57
2022/04/11 01:36:30;;;;;;;6.70;5.73;;;2.80;99.90;;;;;;5008846;28;20490;-57
2022/04/11 01:38:55;;;;;;;9.87;6.37;;;2.70;99.90;;;;;;5009318;28;20418;-55
2022/04/11 01:41:21;;;;;;;6.00;5.40;;;2.70;99.90;;;;;;5009126;28;20264;-58
2022/04/11 01:43:47;;;;;;;6.83;5.30;;;2.80;99.90;;;;;;5009264;28;20187;-59
2022/04/11 01:46:13;;;;;;;7.40;5.63;;;2.80;99.90;;;;;;5009338;28;20251;-58
2022/04/11 01:48:38;;;;;;;8.17;5.87;;;2.90;99.90;;;;;;5008958;28;20777;-61
2022/04/11 01:51:04;;;;;;;7.37;5.30;;;2.90;99.90;;;;;;5010118;28;20474;-58
2022/04/11 01:53:30;;;;;;;8.50;5.17;;;2.90;99.90;;;;;;5012287;28;21445;-58
2022/04/11 01:55:56;;;;;;;8.40;6.00;;;2.90;99.90;;;;;;5015901;28;20479;-59
2022/04/11 01:58:21;;;;;;;7.13;5.30;;;2.90;99.90;;;;;;5022499;28;20422;-59
2022/04/11 02:00:47;;;;;;;6.43;4.70;;;2.90;99.90;;;;;;5026029;28;20266;-59
2022/04/11 02:03:13;;;;;;;7.90;5.63;;;2.90;99.90;;;;;;5032366;28;20191;-58
2022/04/11 02:05:40;;;;;;;6.22;4.88;;;2.90;99.90;;;;;;5024706;28;20274;-58
2022/04/11 02:08:07;;;;;;;5.68;5.18;;;2.90;99.90;;;;;;5030591;28;20276;-58
2022/04/11 02:10:33;;;;;;;9.43;5.20;;;2.90;99.90;;;;;;5032123;28;20565;-58
2022/04/11 02:12:59;;;;;;;6.30;4.90;;;2.90;99.90;;;;;;5030130;28;20179;-59
2022/04/11 02:15:24;;;;;;;7.50;5.30;;;2.90;99.90;;;;;;5032059;28;20549;-59
2022/04/11 02:17:50;;;;;;;5.40;4.40;;;2.90;99.90;;;;;;5030040;28;20206;-57
2022/04/11 02:20:16;;;;;;;5.47;4.63;;;2.90;99.90;;;;;;5022776;28;20210;-57
2022/04/11 02:22:50;;;;;;;7.63;5.10;;;2.80;99.90;;;;;;5025170;28;20313;-58
2022/04/11 02:25:17;;;;;;;6.20;5.50;;;2.80;99.90;;;;;;5022344;28;20573;-60
2022/04/11 02:27:44;;;;;;;8.93;5.60;;;2.70;99.90;;;;;;5004991;28;20519;-58
2022/04/11 02:30:11;;;;;;;7.25;5.05;;;2.70;99.90;;;;;;5017300;28;20290;-58
2022/04/11 02:32:37;;;;;;;5.18;4.35;;;2.60;99.90;;;;;;5012986;28;20187;-58
2022/04/11 02:35:04;;;;;;;7.00;5.00;;;2.60;99.90;;;;;;5029752;28;20524;-58
2022/04/11 02:37:29;;;;;;;6.65;4.85;;;2.50;99.90;;;;;;5031200;28;20175;-58
2022/04/11 02:39:55;;;;;;;6.80;4.90;;;2.40;99.90;;;;;;5026222;28;20184;-58
2022/04/11 02:42:24;;;;;;;5.90;5.30;;;2.30;99.90;;;;;;5022388;28;20179;-58
2022/04/11 02:44:50;;;;;;;7.68;5.05;;;2.30;99.90;;;;;;5016612;28;20183;-58
2022/04/11 02:47:16;;;;;;;8.20;5.43;;;2.20;99.90;;;;;;5022338;28;20182;-58
2022/04/11 02:49:42;;;;;;;8.83;5.80;;;2.10;99.90;;;;;;5014634;28;20230;-57
2022/04/11 02:52:08;;;;;;;6.97;5.77;;;2.10;99.90;;;;;;5017921;28;20171;-59
2022/04/11 02:54:33;;;;;;;9.43;5.90;;;2.10;99.90;;;;;;5017982;28;20284;-59
2022/04/11 02:56:59;;;;;;;10.30;6.27;;;2.10;99.90;;;;;;5017839;28;20941;-58
2022/04/11 02:59:24;;;;;;;6.20;5.13;;;2.00;99.90;;;;;;5011421;28;20180;-56
2022/04/11 03:01:50;;;;;;;7.00;5.53;;;1.90;99.90;;;;;;5011427;28;20168;-58
2022/04/11 03:04:16;;;;;;;7.50;6.10;;;1.90;99.90;;;;;;5011591;28;20668;-58
2022/04/11 03:06:42;;;;;;;7.50;5.50;;;1.80;99.90;;;;;;5011067;28;20179;-59
2022/04/11 03:09:08;;;;;;;8.07;5.70;;;1.80;99.90;;;;;;5011338;28;20494;-59
2022/04/11 03:11:34;;;;;;;6.88;5.38;;;1.70;99.90;;;;;;5011430;28;20195;-57
2022/04/11 03:14:00;;;;;;;8.80;5.60;;;1.70;99.90;;;;;;5011358;28;20618;-58
2022/04/11 03:16:26;;;;;;;6.93;5.50;;;1.70;99.90;;;;;;5011201;28;20531;-59
2022/04/11 03:18:51;;;;;;;7.43;5.43;;;1.60;99.90;;;;;;5011426;28;20240;-59
2022/04/11 03:21:17;;;;;;;7.13;5.90;;;1.60;99.90;;;;;;5010992;28;20171;-59
2022/04/11 03:23:43;;;;;;;11.37;5.37;;;1.60;99.90;;;;;;5011186;28;20183;-59
2022/04/11 03:26:08;;;;;;;6.40;5.40;;;1.60;99.90;;;;;;5011265;28;20189;-58
2022/04/11 03:28:34;;;;;;;7.83;6.10;;;1.50;99.90;;;;;;5010959;28;21170;-59
2022/04/11 03:30:59;;;;;;;7.60;5.70;;;1.50;99.90;;;;;;5010767;28;20211;-61
2022/04/11 03:33:25;;;;;;;8.40;5.60;;;1.60;99.90;;;;;;5010957;28;20198;-60
2022/04/11 03:35:51;;;;;;;7.03;5.33;;;1.60;99.90;;;;;;5010590;28;20742;-59
2022/04/11 03:38:17;;;;;;;6.60;5.23;;;1.50;99.90;;;;;;5011080;28;20176;-59
2022/04/11 03:40:43;;;;;;;11.23;5.90;;;1.60;99.90;;;;;;5011022;28;20575;-59
2022/04/11 03:43:08;;;;;;;8.20;5.17;;;1.60;99.90;;;;;;5010639;28;20325;-59
2022/04/11 03:45:34;;;;;;;10.80;5.93;;;1.60;99.90;;;;;;5010595;28;20195;-59
2022/04/11 03:47:59;;;;;;;7.30;5.10;;;1.60;99.90;;;;;;5010834;28;20207;-56
2022/04/11 03:50:25;;;;;;;6.83;5.00;;;1.60;99.90;;;;;;5010314;28;20655;-58
2022/04/11 03:52:50;;;;;;;7.20;5.20;;;1.50;99.90;;;;;;5010271;28;20171;-59
2022/04/11 03:55:16;;;;;;;7.97;5.33;;;1.50;99.90;;;;;;5009967;28;20255;-58
2022/04/11 03:57:42;;;;;;;7.90;4.80;;;1.50;99.90;;;;;;5010191;28;20183;-59
2022/04/11 04:00:08;;;;;;;7.23;5.57;;;1.40;99.90;;;;;;5010523;28;20237;-59
2022/04/11 04:02:34;;;;;;;7.97;5.00;;;1.40;99.90;;;;;;5010456;28;20222;-58
2022/04/11 04:04:59;;;;;;;6.50;5.47;;;1.40;99.90;;;;;;5010416;28;20689;-59
2022/04/11 04:07:25;;;;;;;5.73;4.57;;;1.30;99.90;;;;;;5010349;28;20258;-58
2022/04/11 04:09:51;;;;;;;7.00;5.53;;;1.30;99.90;;;;;;5010503;28;20231;-59
2022/04/11 04:12:20;;;;;;;7.22;5.68;;;1.30;99.90;;;;;;5010267;28;20677;-58
2022/04/11 04:14:47;;;;;;;6.75;5.05;;;1.30;99.90;;;;;;5009700;28;20206;-54
2022/04/11 04:17:13;;;;;;;9.60;6.25;;;1.30;99.90;;;;;;5010460;28;20172;-58
2022/04/11 04:19:38;;;;;;;6.40;4.93;;;1.30;99.90;;;;;;5010269;28;20539;-61
2022/04/11 04:22:04;;;;;;;7.70;5.60;;;1.20;99.90;;;;;;5010320;28;20739;-59
2022/04/11 04:24:33;;;;;;;7.20;5.80;;;1.10;99.90;;;;;;5010690;28;20275;-61
2022/04/11 04:26:58;;;;;;;9.68;5.72;;;1.10;99.90;;;;;;5010280;28;20426;-59
2022/04/11 04:29:24;;;;;;;7.37;5.50;;;1.10;99.90;;;;;;5008622;28;20184;-59
2022/04/11 04:31:49;;;;;;;7.57;6.20;;;1.10;99.90;;;;;;5009882;28;20681;-60
2022/04/11 04:34:15;;;;;;;8.53;5.60;;;1.00;99.90;;;;;;5010094;28;20164;-59
2022/04/11 04:36:41;;;;;;;7.63;6.20;;;1.00;99.90;;;;;;5009857;28;20218;-59
2022/04/11 04:39:07;;;;;;;6.70;6.00;;;0.90;99.90;;;;;;5010046;28;20199;-59
2022/04/11 04:41:33;;;;;;;8.70;6.20;;;0.90;99.90;;;;;;5011183;28;20259;-59
2022/04/11 04:43:59;;;;;;;9.87;6.50;;;0.90;99.90;;;;;;5011596;28;20414;-59
2022/04/11 04:46:24;;;;;;;8.17;6.20;;;0.90;99.90;;;;;;5009575;28;20194;-58
2022/04/11 04:48:50;;;;;;;11.10;7.67;;;0.90;99.90;;;;;;5011520;28;20892;-60
2022/04/11 04:51:18;;;;;;;9.00;6.73;;;0.90;99.90;;;;;;5011370;28;20302;-59
2022/04/11 04:53:44;;;;;;;12.10;7.43;;;0.90;99.90;;;;;;5010858;28;20622;-59
2022/04/11 04:56:09;;;;;;;9.73;6.60;;;0.90;99.90;;;;;;5019567;28;20240;-59
2022/04/11 04:58:35;;;;;;;10.93;7.20;;;0.90;99.90;;;;;;5019593;28;20210;-58
2022/04/11 05:01:00;;;;;;;8.50;7.30;;;1.00;99.90;;;;;;5023659;28;20182;-57
2022/04/11 05:03:26;;;;;;;10.90;7.30;;;1.00;99.90;;;;;;5030733;28;20183;-60
2022/04/11 05:05:52;;;;;;;8.50;7.40;;;1.00;99.90;;;;;;5029100;28;20536;-59
2022/04/11 05:08:17;;;;;;;11.03;7.77;;;1.00;99.90;;;;;;5030792;28;20187;-60
2022/04/11 05:10:42;;;;;;;11.80;7.80;;;1.00;99.90;;;;;;5017026;28;20680;-59
2022/04/11 05:13:08;;;;;;;12.23;7.70;;;1.10;99.90;;;;;;5028980;28;20236;-59
2022/04/11 05:15:34;;;;;;;10.00;8.03;;;1.10;99.90;;;;;;5030774;28;20179;-59
2022/04/11 05:17:59;;;;;;;9.83;7.70;;;1.10;99.90;;;;;;5015243;28;20187;-59
2022/04/11 05:20:25;;;;;;;8.83;7.33;;;1.20;99.90;;;;;;5020226;28;20274;-58
2022/04/11 05:22:50;;;;;;;9.30;7.37;;;1.20;99.90;;;;;;5024121;28;20226;-59
2022/04/11 05:25:16;;;;;;;11.50;7.50;;;1.20;99.90;;;;;;5022219;28;20232;-59
2022/04/11 05:27:41;;;;;;;8.60;6.93;;;1.20;99.90;;;;;;5032638;28;20264;-60
2022/04/11 05:30:07;;;;;;;10.10;7.67;;;1.30;99.90;;;;;;5015726;28;20258;-58
2022/04/11 05:32:33;;;;;;;9.68;7.88;;;1.30;99.90;;;;;;5015318;28;20190;-58
2022/04/11 05:34:59;;;;;;;11.20;8.10;;;1.40;99.90;;;;;;5021750;28;20187;-55
2022/04/11 05:37:25;;;;;;;12.90;8.80;;;1.50;99.90;;;;;;5031560;28;20186;-57
2022/04/11 05:39:50;;;;;;;8.73;7.43;;;1.50;99.90;;;;;;5016131;28;20764;-56
2022/04/11 05:42:16;;;;;;;10.77;8.27;;;1.60;99.90;;;;;;5023892;28;20540;-59
2022/04/11 05:44:41;;;;;;;12.80;10.27;;;1.60;99.90;;;;;;5012945;28;20689;-59
2022/04/11 05:47:07;;;;;;;10.63;8.43;;;1.70;99.90;;;;;;5012608;28;20180;-59
2022/04/11 05:49:33;;;;;;;14.90;10.07;;;1.80;99.90;;;;;;5012574;28;20188;-57
2022/04/11 05:51:58;;;;;;;12.30;9.60;;;1.80;99.90;;;;;;5025490;28;20193;-57
2022/04/11 05:54:24;;;;;;;11.30;8.80;;;2.00;99.90;;;;;;5017830;28;20256;-59
2022/04/11 05:56:49;;;;;;;9.97;8.57;;;2.00;99.90;;;;;;5018733;28;20188;-57
2022/04/11 05:59:15;;;;;;;11.17;8.50;;;2.10;99.90;;;;;;5013021;28;20184;-58
2022/04/11 06:01:41;;;;;;;10.70;9.63;;;2.20;99.90;;;;;;5011300;28;20200;-56
2022/04/11 06:04:07;;;;;;;14.70;10.80;;;2.30;99.90;;;;;;5011693;28;20194;-58
2022/04/11 06:06:33;;;;;;;10.10;8.10;;;2.40;99.90;;;;;;5010064;28;20250;-58
2022/04/11 06:08:58;;;;;;;11.87;8.10;;;2.60;99.90;;;;;;5012731;28;20184;-58
2022/04/11 06:11:24;;;;;;;10.73;7.93;;;2.70;99.90;;;;;;5011303;28;20200;-57
2022/04/11 06:13:49;;;;;;;11.40;8.03;;;2.70;99.90;;;;;;5015018;28;20180;-58
2022/04/11 06:16:15;;;;;;;9.17;6.80;;;2.80;99.90;;;;;;5011753;28;20172;-63
2022/04/11 06:18:41;;;;;;;11.47;7.57;;;3.00;99.90;;;;;;5010329;28;20172;-63
2022/04/11 06:21:07;;;;;;;12.73;8.02;;;3.10;99.90;;;;;;5006680;28;20179;-63
2022/04/11 06:23:32;;;;;;;8.83;6.60;;;3.20;99.90;;;;;;5002429;28;20729;-63
2022/04/11 06:26:00;;;;;;;8.63;6.83;;;3.20;99.90;;;;;;5009033;28;20534;-58
2022/04/11 06:28:26;;;;;;;11.63;7.63;;;3.30;99.90;;;;;;5019019;28;20538;-62
2022/04/11 06:30:51;;;;;;;8.50;6.00;;;3.40;99.90;;;;;;4995852;28;20242;-62
2022/04/11 06:33:18;;;;;;;8.17;6.73;;;3.50;99.90;;;;;;5021803;28;20217;-63
2022/04/11 06:35:44;;;;;;;6.45;5.45;;;3.60;99.90;;;;;;5012139;28;20175;-63
2022/04/11 06:38:09;;;;;;;7.70;6.20;;;3.70;99.90;;;;;;5019717;28;20183;-62
2022/04/11 06:40:35;;;;;;;10.70;6.17;;;3.90;99.90;;;;;;5014055;28;20657;-61
2022/04/11 06:43:00;;;;;;;7.40;5.80;;;4.00;99.90;;;;;;5031066;28;20281;-62
2022/04/11 06:45:26;;;;;;;6.37;5.30;;;4.10;99.90;;;;;;5014321;28;20202;-63
2022/04/11 06:47:51;;;;;;;4.47;4.00;;;4.20;99.90;;;;;;5010743;28;20191;-62
2022/04/11 06:50:17;;;;;;;5.83;4.97;;;4.30;99.90;;;;;;5010452;28;20210;-63
2022/04/11 06:52:42;;;;;;;5.50;4.67;;;4.40;99.90;;;;;;5010717;28;20213;-63
2022/04/11 06:55:08;;;;;;;5.70;4.87;;;4.50;99.90;;;;;;5007554;28;20243;-62
2022/04/11 06:57:34;;;;;;;6.88;5.15;;;4.60;99.90;;;;;;5014519;28;20183;-63
2022/04/11 07:00:01;;;;;;;6.67;4.67;;;4.60;99.90;;;;;;5029119;28;20201;-63
2022/04/11 07:02:27;;;;;;;7.35;5.20;;;4.70;99.90;;;;;;5029037;28;20202;-63
2022/04/11 07:04:52;;;;;;;5.07;4.57;;;4.80;99.90;;;;;;5019593;28;20183;-63
2022/04/11 07:07:19;;;;;;;7.23;5.27;;;4.90;99.90;;;;;;5010710;28;20242;-62
2022/04/11 07:09:45;;;;;;;7.88;5.30;;;5.00;99.90;;;;;;5009805;28;20175;-63
2022/04/11 07:12:11;;;;;;;5.25;4.60;;;5.10;99.90;;;;;;5009461;28;20206;-63
2022/04/11 07:14:36;;;;;;;7.30;5.10;;;5.20;99.90;;;;;;5014151;28;21071;-63
2022/04/11 07:17:02;;;;;;;5.40;4.43;;;5.30;99.90;;;;;;5011787;28;20219;-63
2022/04/11 07:19:28;;;;;;;5.70;5.10;;;5.40;99.90;;;;;;5028304;28;20266;-63
2022/04/11 07:21:53;;;;;;;7.43;4.53;;;5.50;99.90;;;;;;5023751;28;20457;-63
2022/04/11 07:24:19;;;;;;;6.30;5.13;;;5.60;99.90;;;;;;5009236;28;20188;-62
2022/04/11 07:26:44;;;;;;;6.63;5.10;;;5.70;99.90;;;;;;5010928;28;20189;-63
2022/04/11 07:29:10;;;;;;;7.07;4.73;;;5.90;99.90;;;;;;5037487;28;20188;-63
2022/04/11 07:31:36;;;;;;;6.20;5.00;;;6.00;99.90;;;;;;5016636;28;20226;-62
2022/04/11 07:34:02;;;;;;;5.83;4.60;;;6.10;99.90;;;;;;5014138;28;20178;-62
2022/04/11 07:36:28;;;;;;;5.07;4.57;;;6.30;99.90;;;;;;5019557;28;20423;-62
2022/04/11 07:38:55;;;;;;;6.45;4.35;;;6.40;99.90;;;;;;5013010;28;20241;-62
2022/04/11 07:41:20;;;;;;;5.70;4.50;;;6.50;99.90;;;;;;5029399;28;20179;-63
2022/04/11 07:43:46;;;;;;;5.43;4.93;;;6.70;99.90;;;;;;5028496;28;20238;-63
2022/04/11 07:46:12;;;;;;;6.63;5.30;;;6.80;99.90;;;;;;5010028;28;20184;-63
2022/04/11 07:48:38;;;;;;;5.60;4.67;;;6.90;99.90;;;;;;5008475;28;20187;-63
2022/04/11 07:51:03;;;;;;;5.70;5.10;;;7.00;99.90;;;;;;5009074;28;20203;-63
2022/04/11 07:53:29;;;;;;;5.20;4.70;;;7.20;99.90;;;;;;5009145;28;20430;-63
2022/04/11 07:55:54;;;;;;;5.30;4.77;;;7.30;99.90;;;;;;5009684;28;20326;-63
2022/04/11 07:58:20;;;;;;;5.27;4.80;;;7.50;99.90;;;;;;5008839;28;20179;-62
2022/04/11 08:00:51;;;;;;;4.80;4.40;;;7.50;99.90;;;;;;5006642;28;20442;-62
2022/04/11 08:03:17;;;;;;;5.60;5.10;;;7.70;99.90;;;;;;4990117;28;20268;-63
2022/04/11 08:05:43;;;;;;;6.20;4.60;;;7.90;98.60;;;;;;5004240;28;20418;-63
2022/04/11 08:08:09;;;;;;;4.40;4.00;;;8.00;98.10;;;;;;5009932;28;20401;-63
2022/04/11 08:10:34;;;;;;;4.33;3.93;;;8.20;96.90;;;;;;5009390;28;20519;-63
2022/04/11 08:13:00;;;;;;;5.97;4.33;;;8.40;94.70;;;;;;5007666;28;20195;-63
2022/04/11 08:15:28;;;;;;;3.43;3.13;;;8.50;93.10;;;;;;5009244;28;20194;-61
2022/04/11 08:17:54;;;;;;;3.33;3.03;;;8.80;90.80;;;;;;5008928;28;20443;-64
2022/04/11 08:20:20;;;;;;;5.00;4.50;;;9.10;83.60;;;;;;5009152;28;20449;-64
2022/04/11 08:22:45;;;;;;;5.77;3.93;;;9.20;90.10;;;;;;5009129;28;21116;-63
2022/04/11 08:25:11;;;;;;;3.93;3.63;;;9.40;90.90;;;;;;5008916;28;20243;-63
2022/04/11 08:27:37;;;;;;;4.27;3.70;;;9.50;83.80;;;;;;5007649;28;20183;-61
2022/04/11 08:30:04;;;;;;;4.23;3.40;;;9.70;84.70;;;;;;5005051;28;20694;-63
2022/04/11 08:32:38;;;;;;;3.27;2.97;;;9.80;84.30;;;;;;5008790;28;20195;-60
2022/04/11 08:35:04;;;;;;;3.30;3.10;;;10.20;71.30;;;;;;5010672;28;20417;-62
2022/04/11 08:37:30;;;;;;;3.20;2.90;;;10.50;62.50;;;;;;5024293;28;20418;-61
2022/04/11 08:39:55;;;;;;;2.97;2.77;;;10.60;62.80;;;;;;5009171;28;20927;-62
2022/04/11 08:42:23;;;;;;;3.20;3.00;;;10.90;63.00;;;;;;5011229;28;20186;-62
2022/04/11 08:44:52;;;;;;;3.30;3.10;;;11.30;64.40;;;;;;5012250;28;20641;-62
2022/04/11 08:47:18;;;;;;;3.30;3.10;;;11.90;57.60;;;;;;5027343;28;20424;-62
2022/04/11 08:49:44;;;;;;;3.40;3.10;;;12.40;53.70;;;;;;5027387;28;20418;-62
2022/04/11 08:52:10;;;;;;;3.50;3.23;;;12.90;52.70;;;;;;5020329;28;20610;-63
2022/04/11 08:54:36;;;;;;;3.33;3.13;;;13.50;47.20;;;;;;5008534;28;20298;-57
2022/04/11 08:57:02;;;;;;;3.30;3.00;;;14.00;46.00;;;;;;5028743;28;20825;-61
2022/04/11 08:59:32;;;;;;;3.43;3.13;;;14.70;46.50;;;;;;5007460;28;20521;-62
2022/04/11 09:01:58;;;;;;;3.23;3.03;;;15.50;42.70;;;;;;5007937;28;20519;-61
2022/04/11 09:04:23;;;;;;;3.07;2.87;;;16.00;40.50;;;;;;5008386;28;20422;-62
2022/04/11 09:06:56;;;;;;;3.23;3.10;;;16.30;37.50;;;;;;5026097;28;20213;-61
2022/04/11 09:09:38;;;;;;;3.63;3.43;;;16.90;36.10;;;;;;5027667;28;20181;-62
2022/04/11 09:12:04;;;;;;;2.90;2.80;;;17.40;33.10;;;;;;5008261;28;20504;-62
2022/04/11 09:14:29;;;;;;;2.80;2.70;;;17.80;34.60;;;;;;5010805;28;21162;-62
2022/04/11 09:16:55;;;;;;;3.70;3.23;;;18.20;31.70;;;;;;5015680;28;20417;-60
2022/04/11 09:19:25;;;;;;;3.40;3.30;;;18.60;29.10;;;;;;5027771;28;20227;-62
2022/04/11 09:21:54;;;;;;;3.10;3.00;;;18.40;27.90;;;;;;4995697;28;20194;-61
2022/04/11 09:24:22;;;;;;;3.57;3.37;;;18.50;28.10;;;;;;5019241;28;20428;-62
2022/04/11 09:26:49;;;;;;;3.70;3.50;;;18.70;27.20;;;;;;5014620;28;20908;-63
2022/04/11 09:29:15;;;;;;;3.23;3.03;;;19.00;24.40;;;;;;5007339;28;21348;-62
2022/04/11 09:31:41;;;;;;;3.50;3.20;;;18.40;25.00;;;;;;5012429;28;20548;-62
2022/04/11 09:34:14;;;;;;;3.60;3.40;;;18.70;26.90;;;;;;5020359;28;20183;-62
2022/04/11 09:36:51;;;;;;;3.60;3.30;;;19.30;25.30;;;;;;5021618;28;20426;-60
2022/04/11 09:39:29;;;;;;;3.20;3.10;;;19.70;26.50;;;;;;5019289;28;20421;-61
2022/04/11 09:41:55;;;;;;;3.43;3.23;;;20.50;25.00;;;;;;5008529;28;20423;-60
2022/04/11 09:44:22;;;;;;;3.47;3.27;;;21.00;24.90;;;;;;5008717;28;20771;-55
2022/04/11 09:46:51;;;;;;;3.80;3.60;;;21.10;23.50;;;;;;5004769;28;20419;-58
2022/04/11 09:49:18;;;;;;;3.70;3.50;;;21.10;24.40;;;;;;5006973;28;20849;-59
2022/04/11 09:52:02;;;;;;;3.70;3.60;;;21.60;26.30;;;;;;5007490;28;20454;-56
2022/04/11 09:54:29;;;;;;;3.30;3.10;;;21.60;23.50;;;;;;5007458;28;20932;-56
2022/04/11 09:56:57;;;;;;;3.47;3.27;;;20.70;23.40;;;;;;5005902;28;20465;-59
2022/04/11 09:59:23;;;;;;;4.03;3.73;;;19.70;23.40;;;;;;5006864;28;20425;-57
2022/04/11 10:01:51;;;;;;;3.90;3.60;;;19.30;22.70;;;;;;5007242;28;20408;-59
2022/04/11 10:04:20;;;;;;;4.57;3.60;;;19.40;25.90;;;;;;5007807;28;20423;-58
2022/04/11 10:06:46;;;;;;;3.77;3.53;;;20.00;25.10;;;;;;5007088;28;20431;-60
2022/04/11 10:09:16;;;;;;;3.33;3.23;;;20.50;24.30;;;;;;5007770;28;20422;-55
2022/04/11 10:11:43;;;;;;;3.90;3.70;;;20.30;22.20;;;;;;5007310;28;21122;-58
2022/04/11 10:14:17;;;;;;;3.60;3.40;;;20.70;21.40;;;;;;5010902;28;20545;-58
2022/04/11 10:16:44;;;;;;;3.90;3.60;;;20.40;20.00;;;;;;5012021;28;20452;-58
2022/04/11 10:19:13;;;;;;;3.80;3.60;;;20.40;22.80;;;;;;5011563;28;20410;-58
2022/04/11 10:21:44;;;;;;;3.20;3.00;;;20.50;22.90;;;;;;5011714;28;20879;-58
2022/04/11 10:24:27;;;;;;;3.30;3.10;;;20.90;21.80;;;;;;5011056;28;20922;-58
2022/04/11 10:26:55;;;;;;;3.00;2.90;;;21.90;21.60;;;;;;5011614;28;20407;-58
2022/04/11 10:29:33;;;;;;;3.43;3.33;;;22.10;19.10;;;;;;5009392;28;20466;-57
2022/04/11 10:32:06;;;;;;;3.97;3.67;;;22.20;18.70;;;;;;5009991;28;20461;-58
2022/04/11 10:34:46;;;;;;;3.60;3.40;;;22.30;18.60;;;;;;5018182;28;20497;-58
2022/04/11 10:37:12;;;;;;;3.60;3.40;;;21.80;17.00;;;;;;5019931;28;20462;-57
2022/04/11 10:39:39;;;;;;;3.10;3.00;;;21.90;18.40;;;;;;5030625;28;20858;-57
2022/04/11 10:42:09;;;;;;;3.20;3.00;;;22.00;15.50;;;;;;5031023;28;20475;-57
2022/04/11 10:44:36;;;;;;;3.37;3.20;;;21.90;15.70;;;;;;5015364;28;20433;-58
2022/04/11 10:47:11;;;;;;;3.50;3.30;;;21.80;16.80;;;;;;5006516;28;20912;-58
2022/04/11 10:49:49;;;;;;;3.43;3.33;;;21.80;16.40;;;;;;5026950;28;20452;-58
2022/04/11 10:52:38;;;;;;;3.30;3.10;;;22.20;19.90;;;;;;5029839;28;20423;-58
2022/04/11 10:55:18;;;;;;;3.57;3.37;;;23.10;18.00;;;;;;5023499;28;20545;-59
2022/04/11 10:57:45;;;;;;;3.83;3.63;;;23.60;19.40;;;;;;5024717;28;20419;-59
2022/04/11 11:00:31;;;;;;;3.50;3.30;;;24.10;18.90;;;;;;5019800;28;20434;-59
2022/04/11 11:02:57;;;;;;;3.67;3.47;;;24.00;18.90;;;;;;5028906;28;20940;-59
2022/04/11 11:06:13;;;;;;;3.67;3.47;;;24.60;17.60;;;;;;5018471;28;20444;-58
2022/04/11 11:08:39;;;;;;;4.20;4.00;;;24.10;18.70;;;;;;5027132;28;21025;-59
2022/04/11 11:11:25;;;;;;;3.67;3.47;;;24.30;18.50;;;;;;5017400;28;20532;-59
2022/04/11 11:13:52;;;;;;;2.80;2.70;;;24.10;13.90;;;;;;4998311;28;20644;-59
2022/04/11 11:16:18;;;;;;;3.03;2.93;;;24.50;14.90;;;;;;4997224;28;20465;-58
2022/04/11 11:18:50;;;;;;;3.30;3.10;;;25.10;16.60;;;;;;5004025;28;20747;-58
2022/04/11 11:21:22;;;;;;;3.10;3.00;;;25.40;14.70;;;;;;5014990;28;20918;-59
2022/04/11 11:24:08;;;;;;;3.90;3.70;;;24.70;15.90;;;;;;5016741;28;20420;-60
2022/04/11 11:26:45;;;;;;;3.20;3.00;;;24.00;16.50;;;;;;5029851;28;20417;-59
2022/04/11 11:29:17;;;;;;;3.30;3.10;;;23.90;16.90;;;;;;5026324;28;20424;-59
2022/04/11 11:31:43;;;;;;;3.60;3.40;;;24.60;16.60;;;;;;5015150;28;20452;-58
2022/04/11 11:34:11;;;;;;;3.73;3.53;;;23.80;12.80;;;;;;5030052;28;20505;-58
2022/04/11 11:36:38;;;;;;;3.80;3.50;;;22.90;13.50;;;;;;5019113;28;20767;-56
2022/04/11 11:39:20;;;;;;;3.50;3.30;;;22.60;15.40;;;;;;5029663;28;20418;-58
2022/04/11 11:41:47;;;;;;;3.47;3.27;;;22.00;16.80;;;;;;5016911;28;20933;-58
2022/04/11 11:44:13;;;;;;;3.20;3.10;;;21.10;15.60;;;;;;5029423;28;20428;-60
2022/04/11 11:47:04;;;;;;;3.13;2.93;;;21.90;15.90;;;;;;5008415;28;20423;-56
2022/04/11 11:49:47;;;;;;;2.93;2.83;;;22.90;14.40;;;;;;5009986;28;20433;-58
2022/04/11 11:52:17;;;;;;;3.47;3.37;;;23.50;15.30;;;;;;5007895;28;20799;-59
2022/04/11 11:54:46;;;;;;;3.10;3.00;;;24.20;17.30;;;;;;5026711;28;20848;-59
2022/04/11 11:57:20;;;;;;;3.43;3.33;;;24.60;16.20;;;;;;5029740;28;20432;-58
2022/04/11 11:59:54;;;;;;;3.03;2.83;;;25.10;15.60;;;;;;5029385;28;20416;-59
2022/04/11 12:05:30;;;;;;;3.57;3.37;;;25.60;15.50;;;;;;5018091;28;20813;-59
2022/04/11 12:08:02;;;;;;;3.10;2.90;;;25.40;16.30;;;;;;5014337;28;20968;-58
2022/04/11 12:10:28;;;;;;;4.00;3.77;;;26.00;14.80;;;;;;5028765;28;20544;-58
2022/04/11 12:12:54;;;;;;;3.43;3.23;;;26.70;12.90;;;;;;5028427;28;20516;-57
2022/04/11 12:15:20;;;;;;;3.50;3.30;;;26.10;14.80;;;;;;5028818;28;20414;-58
2022/04/11 12:17:47;;;;;;;3.17;3.00;;;26.40;14.40;;;;;;5009916;28;20434;-58
2022/04/11 12:20:21;;;;;;;3.53;3.33;;;26.40;14.90;;;;;;5018880;28;20429;-59
2022/04/11 12:23:12;;;;;;;3.33;3.23;;;26.40;15.70;;;;;;5028852;28;20903;-58
2022/04/11 12:25:43;;;;;;;3.43;3.33;;;27.20;16.50;;;;;;5014909;28;20433;-57
2022/04/11 12:28:18;;;;;;;4.00;3.80;;;27.10;12.30;;;;;;5009516;28;20422;-59
2022/04/11 12:31:16;;;;;;;3.87;3.67;;;26.50;12.30;;;;;;5010320;28;20545;-59
2022/04/11 12:33:43;;;;;;;3.20;3.07;;;26.00;15.00;;;;;;5015475;28;20472;-59
2022/04/11 12:36:16;;;;;;;3.77;3.50;;;26.10;14.80;;;;;;5009265;28;20818;-60
2022/04/11 12:38:58;;;;;;;3.63;3.43;;;26.10;14.70;;;;;;5028716;28;20413;-58
2022/04/11 12:41:30;;;;;;;3.77;3.57;;;26.70;13.30;;;;;;5026972;28;20453;-59
2022/04/11 12:44:18;;;;;;;3.20;3.10;;;26.80;13.80;;;;;;5028690;28;20432;-59
2022/04/11 12:46:56;;;;;;;3.03;2.90;;;26.80;14.50;;;;;;5005151;28;20557;-59
2022/04/11 12:49:23;;;;;;;3.00;2.80;;;26.80;13.60;;;;;;5021292;28;20421;-59
2022/04/11 12:52:05;;;;;;;3.03;2.93;;;26.40;14.80;;;;;;5008400;28;20570;-59
2022/04/11 12:54:45;;;;;;;3.27;3.17;;;26.10;14.50;;;;;;5021639;28;20548;-59
2022/04/11 12:57:18;;;;;;;3.60;3.40;;;25.90;15.20;;;;;;5005427;28;20432;-59
2022/04/11 12:59:43;;;;;;;3.00;2.90;;;25.80;15.20;;;;;;5028065;28;20501;-59